createdAt,value
2023-01-11T00:01:38.082Z,100995.95
2023-01-11T00:06:40.621Z,100994.66
2023-01-11T00:11:43.512Z,100992.14
2023-01-11T00:16:46.156Z,100987.86
2023-01-11T00:21:49.677Z,100989.02
2023-01-11T00:26:52.405Z,100982.79
2023-01-11T00:31:55.187Z,100974.13
2023-01-11T00:36:58.186Z,100961.52
2023-01-11T00:42:19.632Z,100955.83
2023-01-11T00:47:41.093Z,100955.92
2023-01-11T00:52:43.586Z,100945.02
2023-01-11T00:57:46.289Z,100945.66
2023-01-11T01:02:49.970Z,100938.48
2023-01-11T01:07:52.704Z,100932.62
2023-01-11T01:13:14.078Z,100919.61
2023-01-11T01:18:16.692Z,100909.00
2023-01-11T01:23:19.209Z,100906.88
2023-01-11T01:28:22.352Z,100913.39
2023-01-11T01:33:25.165Z,100909.03
2023-01-11T01:38:28.333Z,100900.06
2023-01-11T01:43:51.654Z,100905.04
2023-01-11T01:49:01.871Z,100896.11
2023-01-11T01:54:08.308Z,100887.88
2023-01-11T01:59:15.527Z,100876.75
2023-01-11T02:04:26.664Z,100870.27
2023-01-11T02:09:38.816Z,100860.09
2023-01-11T02:14:43.176Z,100846.35
2023-01-11T02:20:17.824Z,100837.02
2023-01-11T02:25:52.598Z,100825.42
2023-01-11T02:31:16.096Z,100813.30
2023-01-11T02:36:37.746Z,100801.20
2023-01-11T02:42:17.900Z,100788.10
2023-01-11T02:47:30.226Z,100774.41
2023-01-11T02:52:39.899Z,100775.02
2023-01-11T02:57:44.960Z,100765.36
2023-01-11T03:02:47.509Z,100769.20
2023-01-11T03:08:31.160Z,100759.60
2023-01-11T03:14:01.589Z,100751.10
2023-01-11T03:19:26.283Z,100742.77
2023-01-11T03:24:45.781Z,100736.60
2023-01-11T03:30:07.881Z,100727.48
2023-01-11T03:35:37.852Z,100720.90
2023-01-11T03:40:46.649Z,100714.71
2023-01-11T03:46:05.543Z,100706.53
2023-01-11T03:51:12.533Z,100709.29
2023-01-11T03:56:20.207Z,100703.89
2023-01-11T04:01:24.560Z,100694.09
2023-01-11T04:06:27.178Z,100697.15
2023-01-11T04:11:29.790Z,100692.48
2023-01-11T04:16:32.343Z,100687.59
2023-01-11T04:21:35.051Z,100685.73
2023-01-11T04:26:37.588Z,100683.45
2023-01-11T04:31:40.222Z,100674.67
2023-01-11T04:36:42.810Z,100669.60
2023-01-11T04:42:04.214Z,100653.79
2023-01-11T04:47:06.719Z,100650.09
2023-01-11T04:52:14.713Z,100649.81
2023-01-11T04:57:17.689Z,100636.73
2023-01-11T05:02:20.371Z,100638.98
2023-01-11T05:07:22.923Z,100638.61
2023-01-11T05:12:25.498Z,100632.27
2023-01-11T05:17:28.241Z,100624.25
2023-01-11T05:22:30.868Z,100617.61
2023-01-11T05:27:33.599Z,100605.84
2023-01-11T05:32:36.306Z,100594.44
2023-01-11T05:37:39.013Z,100596.12
2023-01-11T05:42:41.689Z,100591.05
2023-01-11T05:47:44.188Z,100588.81
2023-01-11T05:52:47.128Z,100583.35
2023-01-11T05:57:51.079Z,100578.66
2023-01-11T06:02:54.259Z,100579.86
2023-01-11T06:07:57.225Z,100579.54
2023-01-11T06:13:18.669Z,100575.49
2023-01-11T06:18:21.527Z,100566.83
2023-01-11T06:23:25.605Z,100556.73
2023-01-11T06:28:28.230Z,100548.12
2023-01-11T06:33:31.454Z,100550.73
2023-01-11T06:38:34.925Z,100545.71
2023-01-11T06:43:42.210Z,100537.20
2023-01-11T06:48:46.241Z,100546.39
2023-01-11T06:53:48.829Z,100553.31
2023-01-11T06:58:52.605Z,100550.42
2023-01-11T07:03:55.470Z,100551.94
2023-01-11T07:08:58.541Z,100556.52
2023-01-11T07:14:01.146Z,100563.08
2023-01-11T07:19:03.736Z,100568.00
2023-01-11T07:24:06.494Z,100569.92
2023-01-11T07:29:09.195Z,100574.79
2023-01-11T07:34:12.195Z,100577.98
2023-01-11T07:39:15.489Z,100576.13
2023-01-11T07:44:18.463Z,100566.96
2023-01-11T07:49:21.278Z,100571.66
2023-01-11T07:54:24.795Z,100566.55
2023-01-11T07:59:27.330Z,100566.61
2023-01-11T08:04:30.236Z,100566.34
2023-01-11T08:09:32.847Z,100558.06
2023-01-11T08:14:41.323Z,100560.46
2023-01-11T08:19:43.950Z,100555.94
2023-01-11T08:24:46.620Z,100560.52
2023-01-11T08:29:49.176Z,100551.07
2023-01-11T08:34:51.739Z,100550.96
2023-01-11T08:39:55.941Z,100556.48
2023-01-11T08:44:58.626Z,100551.23
2023-01-11T08:50:01.213Z,100551.63
2023-01-11T08:55:07.693Z,100546.32
2023-01-11T09:00:11.312Z,100544.62
2023-01-11T09:05:13.942Z,100550.96
2023-01-11T09:10:16.516Z,100549.64
2023-01-11T09:15:19.631Z,100549.22
2023-01-11T09:20:23.873Z,100544.20
2023-01-11T09:25:26.578Z,100539.88
2023-01-11T09:30:29.349Z,100537.14
2023-01-11T09:35:32.006Z,100540.05
2023-01-11T09:40:49.374Z,100535.89
2023-01-11T09:45:53.183Z,100532.16
2023-01-11T09:50:57.722Z,100523.16
2023-01-11T09:56:05.079Z,100518.96
2023-01-11T10:01:46.215Z,100518.91
2023-01-11T10:07:12.480Z,100520.05
2023-01-11T10:18:49.341Z,100500.05
2023-01-11T10:24:12.076Z,100489.95
2023-01-11T10:29:30.314Z,100477.98
2023-01-11T10:34:52.389Z,100476.27
2023-01-11T10:40:39.833Z,100473.75
2023-01-11T10:45:50.754Z,100469.76
2023-01-11T10:51:17.759Z,100470.52
2023-01-11T10:57:02.953Z,100468.21
2023-01-11T11:02:13.534Z,100458.09
2023-01-11T11:07:25.991Z,100452.00
2023-01-11T11:12:31.700Z,100440.31
2023-01-11T11:17:36.925Z,100432.36
2023-01-11T11:22:39.483Z,100428.14
2023-01-11T11:27:47.727Z,100420.20
2023-01-11T11:32:59.797Z,100416.92
2023-01-11T11:38:02.536Z,100416.44
2023-01-11T11:43:22.235Z,100412.20
2023-01-11T11:48:27.408Z,100409.52
2023-01-11T11:53:35.503Z,100406.05
2023-01-11T11:58:41.147Z,100406.21
2023-01-11T12:03:43.836Z,100398.23
2023-01-11T12:08:46.487Z,100385.73
2023-01-11T12:14:02.176Z,100379.96
2023-01-11T12:19:50.677Z,100373.33
2023-01-11T12:25:05.867Z,100365.47
2023-01-11T12:30:46.452Z,100362.11
2023-01-11T12:36:03.147Z,100359.02
2023-01-11T12:41:42.663Z,100356.86
2023-01-11T12:47:04.199Z,100360.73
2023-01-11T12:52:12.696Z,100356.77
2023-01-11T12:57:34.092Z,100350.13
2023-01-11T13:02:55.090Z,100341.52
2023-01-11T13:08:16.387Z,100331.50
2023-01-11T13:13:29.803Z,100337.89
2023-01-11T13:18:59.380Z,100340.55
2023-01-11T13:24:12.369Z,100338.55
2023-01-11T13:29:37.708Z,100340.63
2023-01-11T13:34:47.547Z,100343.16
2023-01-11T13:39:57.034Z,100339.80
2023-01-11T13:45:09.248Z,100340.81
2023-01-11T13:50:32.130Z,100343.21
2023-01-11T13:56:09.841Z,100344.30
2023-01-11T14:01:17.564Z,100342.80
2023-01-11T14:06:42.006Z,100347.11
2023-01-11T14:12:05.429Z,100350.31
2023-01-11T14:17:24.579Z,100358.44
2023-01-11T14:22:41.347Z,100358.31
2023-01-11T14:27:59.192Z,100356.76
2023-01-11T14:33:36.710Z,100358.59
2023-01-11T14:39:15.722Z,100365.48
2023-01-11T14:44:32.914Z,100373.45
2023-01-11T14:49:57.959Z,100375.70
2023-01-11T14:55:05.348Z,100379.94
2023-01-11T15:00:34.311Z,100379.27
2023-01-11T15:05:54.648Z,100379.81
2023-01-11T15:11:02.233Z,100382.16
2023-01-11T15:16:28.370Z,100377.66
2023-01-11T15:21:35.627Z,100382.14
2023-01-11T15:26:48.730Z,100388.48
2023-01-11T15:31:54.266Z,100393.84
2023-01-11T15:36:59.939Z,100398.67
2023-01-11T15:42:16.167Z,100407.91
2023-01-11T15:47:42.605Z,100407.95
2023-01-11T15:53:17.749Z,100411.13
2023-01-11T15:58:45.723Z,100418.33
2023-01-11T16:04:00.412Z,100428.04
2023-01-11T16:09:41.968Z,100432.25
2023-01-11T16:14:56.501Z,100437.88
2023-01-11T16:20:18.934Z,100449.42
2023-01-11T16:25:25.045Z,100454.98
2023-01-11T16:30:28.811Z,100462.98
2023-01-11T16:35:31.344Z,100468.99
2023-01-11T16:40:37.752Z,100473.63
2023-01-11T16:45:43.543Z,100484.09
2023-01-11T16:50:50.994Z,100488.94
2023-01-11T16:56:09.588Z,100483.02
2023-01-11T17:01:15.327Z,100496.55
2023-01-11T17:06:22.038Z,100510.45
2023-01-11T17:11:39.574Z,100512.98
2023-01-11T17:16:49.093Z,100513.05
2023-01-11T17:22:05.279Z,100513.54
2023-01-11T17:27:18.454Z,100525.80
2023-01-11T17:32:35.565Z,100523.71
2023-01-11T17:37:39.072Z,100525.83
2023-01-11T17:43:00.161Z,100528.23
2023-01-11T17:48:12.934Z,100537.57
2023-01-11T17:53:20.977Z,100544.80
2023-01-11T17:58:28.773Z,100544.70
2023-01-11T18:03:38.940Z,100553.39
2023-01-11T18:08:47.899Z,100557.95
2023-01-11T18:13:52.890Z,100562.42
2023-01-11T18:18:56.021Z,100570.35
2023-01-11T18:24:07.792Z,100577.48
2023-01-11T18:29:42.289Z,100576.26
2023-01-11T18:34:48.068Z,100579.66
2023-01-11T18:39:52.383Z,100589.03
2023-01-11T18:44:55.119Z,100604.18
2023-01-11T18:49:58.029Z,100605.30
2023-01-11T18:55:00.589Z,100607.20
2023-01-11T19:00:03.683Z,100605.54
2023-01-11T19:05:09.995Z,100601.63
2023-01-11T19:10:19.241Z,100616.13
2023-01-11T19:15:21.808Z,100631.98
2023-01-11T19:20:24.690Z,100636.16
2023-01-11T19:25:28.336Z,100644.72
2023-01-11T19:30:31.394Z,100646.66
2023-01-11T19:35:33.951Z,100656.95
2023-01-11T19:40:36.634Z,100666.23
2023-01-11T19:45:39.325Z,100663.27
2023-01-11T19:50:42.072Z,100663.33
2023-01-11T19:55:44.721Z,100674.11
2023-01-11T20:00:47.418Z,100686.34
2023-01-11T20:05:50.430Z,100690.52
2023-01-11T20:10:53.705Z,100692.10
2023-01-11T20:15:56.337Z,100697.04
2023-01-11T20:20:59.350Z,100708.65
2023-01-11T20:26:04.440Z,100709.65
2023-01-11T20:31:07.850Z,100714.27
2023-01-11T20:36:16.208Z,100709.83
2023-01-11T20:41:41.667Z,100717.08
2023-01-11T20:46:47.873Z,100718.89
2023-01-11T20:51:51.016Z,100719.92
2023-01-11T20:56:53.755Z,100722.94
2023-01-11T21:01:56.353Z,100722.27
2023-01-11T21:06:58.967Z,100721.90
2023-01-11T21:12:01.587Z,100720.48
2023-01-11T21:17:04.269Z,100715.83
2023-01-11T21:22:07.610Z,100714.91
2023-01-11T21:27:10.573Z,100714.83
2023-01-11T21:32:13.165Z,100714.65
2023-01-11T21:37:15.864Z,100716.34
2023-01-11T21:42:19.183Z,100706.77
2023-01-11T21:47:22.279Z,100717.91
2023-01-11T21:52:25.010Z,100721.96
2023-01-11T21:57:27.698Z,100725.23
2023-01-11T22:02:30.240Z,100734.35
2023-01-11T22:07:33.389Z,100732.86
2023-01-11T22:12:36.143Z,100726.51
2023-01-11T22:17:39.101Z,100722.19
2023-01-11T22:22:41.851Z,100720.88
2023-01-11T22:27:44.526Z,100716.77
2023-01-11T22:32:47.975Z,100715.40
2023-01-11T22:37:50.663Z,100716.27
2023-01-11T22:42:53.274Z,100722.92
2023-01-11T22:47:59.179Z,100717.80
2023-01-11T22:53:02.217Z,100723.95
2023-01-11T22:58:05.083Z,100727.84
2023-01-11T23:03:07.912Z,100715.48
2023-01-11T23:08:10.768Z,100715.27
2023-01-11T23:13:32.209Z,100720.82
2023-01-11T23:18:34.724Z,100718.52
2023-01-11T23:23:40.409Z,100715.23
2023-01-11T23:28:43.025Z,100724.73
2023-01-11T23:33:51.869Z,100725.20
2023-01-11T23:38:54.398Z,100715.80
2023-01-11T23:43:57.895Z,100717.75
2023-01-11T23:49:03.807Z,100706.65
2023-01-11T23:54:06.997Z,100701.23
2023-01-11T23:59:09.792Z,100690.30
